Flight Track Log - Related Links

Times and Time Zones

All times are in EDT time to prevent confusion due to time zone crossing. See the N154CS flight status page for this flight to view local times or setup timezone preferences in your user account.

Time Position Orientation Groundspeed Altitude Reporting Facility
EDT Latitude Longitude Course Direction KTS MPH feet Rate Location/Type
Thu 02:08:00 PM 41.3732 -70.8565 267° West  Level FlightAware Approximate
Thu 02:09:00 PM 41.3680 -70.9836 267° West  Level FlightAware Approximate
Thu 02:10:00 PM 41.3667 -71.1109 270° West  Level FlightAware Approximate
Thu 02:11:00 PM 41.3620 -71.2379 265° West  Level FlightAware Approximate
Thu 02:12:00 PM 41.3535 -71.3646 265° West  Level FlightAware Approximate
Thu 02:13:00 PM 41.3472 -71.4916 267° West  Level FlightAware Approximate
Thu 02:14:00 PM 41.3424 -71.6187 267° West  Level FlightAware Approximate
Thu 02:15:00 PM 41.3375 -71.7457 267° West  Level FlightAware Approximate
Thu 02:16:00 PM 41.3315 -71.8727 264° West  Level FlightAware Approximate
Thu 02:17:00 PM 41.3209 -71.9991 264° West  Level FlightAware Approximate
Thu 02:18:00 PM 41.2837 -72.1120 235° Southwest  Level FlightAware Approximate
Thu 02:18:06 PM 41.3847 -70.8603 234° Southwest 151 174 6,100  Level Boston Center
Thu 02:19:00 PM 41.2285 -72.2156 235° Southwest  Level FlightAware Approximate
Thu 02:19:25 PM 41.3797 -70.9378 265° West 150 173 6,100  Level Boston Center
Thu 02:20:00 PM 41.1730 -72.3190 234° Southwest  Level FlightAware Approximate
Thu 02:20:25 PM 41.3803 -70.9933 271° West 150 173 6,100  Level Boston Center
Thu 02:21:00 PM 41.1167 -72.4215 234° Southwest  Level FlightAware Approximate
Thu 02:21:26 PM 41.3769 -71.0486 265° West 150 173 6,100  Level Boston Center
Thu 02:22:00 PM 41.0604 -72.5238 234° Southwest  Level FlightAware Approximate
Thu 02:22:27 PM 41.3733 -71.1039 265° West 150 173 6,100  Level Boston Center
Thu 02:23:00 PM 41.0039 -72.6260 234° Southwest  Level FlightAware Approximate
Thu 02:23:22 PM 41.3719 -71.1567 268° West 150 173 6,100  Level Boston Center
Thu 02:24:23 PM 41.3706 -71.2119 268° West 150 173 6,100  Level Boston Center
Thu 02:25:24 PM 41.3689 -71.2644 268° West 151 174 6,100  Level Boston Center
Thu 02:26:25 PM 41.3633 -71.3228 263° West 149 171 6,100  Level Boston Center
Thu 02:27:25 PM 41.3617 -71.3781 268° West 148 170 6,100  Level Boston Center
Thu 02:28:32 PM 41.3603 -71.4389 268° West 147 169 6,100  Level Boston Center
Thu 02:29:27 PM 41.3564 -71.4889 264° West 147 169 6,100  Level Boston Center
Thu 02:30:28 PM 41.3569 -71.5414 271° West 148 170 6,100  Level Boston Center
Thu 02:31:29 PM 41.3511 -71.5939 262° West 146 168 6,100  Level Boston Center
Thu 02:32:29 PM 41.3472 -71.6519 265° West 148 170 6,100  Level Boston Center
Thu 02:33:25 PM 41.3456 -71.7019 267° West 146 168 6,100 34 Level Boston Center
Thu 02:35:26 PM 41.3419 -71.8153 268° West 148 170 6,200  Climbing Boston Center
Thu 02:36:27 PM 41.3381 -71.8650 264° West 148 170 6,100 -47 Descending Boston Center
Thu 02:37:34 PM 41.3342 -71.9314 266° West 148 170 6,100  Level Boston Center
Thu 02:38:34 PM 41.3325 -71.9839 268° West 149 171 6,100  Level Boston Center
Thu 02:39:41 PM 41.3286 -72.0447 265° West 146 168 6,100  Level Boston Center
Thu 02:40:42 PM 41.3078 -72.0919 240° Southwest 164 189 6,100  Level Boston Center
Thu 02:43:11 PM 41.2500 -72.2000 235° Southwest 147 169 6,100  Level New York TRACON
Thu 02:44:11 PM 41.2333 -72.2333 236° Southwest 147 169 6,100  Level New York TRACON
Thu 02:45:05 PM 41.2000 -72.2833 228° Southwest 148 170 6,100  Level New York TRACON
Thu 02:46:11 PM 41.1833 -72.3167 236° Southwest 149 171 6,100  Level New York TRACON
Thu 02:47:11 PM 41.1500 -72.3667 228° Southwest 148 170 6,100  Level New York TRACON
Thu 02:48:11 PM 41.1167 -72.4000 217° Southwest 147 169 6,100  Level New York TRACON
Thu 02:49:11 PM 41.1000 -72.4500 246° West 147 169 6,100  Level New York TRACON
Thu 02:50:11 PM 41.0667 -72.4833 217° Southwest 149 171 6,100  Level New York TRACON
Thu 02:51:11 PM 41.0500 -72.5333 246° West 149 171 6,100  Level New York TRACON
Thu 02:52:11 PM 41.0333 -72.5833 246° West 151 174 6,100  Level New York TRACON
Thu 02:53:11 PM 41.0000 -72.6333 229° Southwest 153 176 6,100  Level New York TRACON
Thu 02:54:11 PM 40.9833 -72.6833 246° West 153 176 6,100  Level New York TRACON
Thu 02:55:11 PM 40.9667 -72.7333 246° West 154 177 6,100  Level New York TRACON
Thu 02:56:11 PM 40.9500 -72.7833 246° West 147 169 6,100 -143 Level New York TRACON
Thu 02:57:17 PM 40.9333 -72.8333 246° West 133 153 5,800 -350 Descending New York TRACON
Thu 02:58:11 PM 40.9167 -72.8667 237° Southwest 134 154 5,400 -632 Descending New York TRACON
Thu 02:59:11 PM 40.8833 -72.9000 217° Southwest 145 167 4,600 -619 Descending New York TRACON
Thu 03:00:17 PM 40.8667 -72.9500 246° West 137 158 4,100 -238 Descending New York TRACON
Thu 03:01:17 PM 40.8500 -73.0000 246° West 137 158 4,100 -150 Level New York TRACON
Thu 03:02:17 PM 40.8333 -73.0500 246° West 141 162 3,800 -500 Descending New York TRACON
Thu 03:03:17 PM 40.8333 -73.1000 270° West 136 157 3,100 -350 Descending New York TRACON
Thu 03:04:17 PM 40.8167 -73.1333 237° Southwest 133 153 3,100  Level New York TRACON
Thu 03:05:17 PM 40.8167 -73.1833 270° West 127 146 3,100  Level New York TRACON
Thu 03:06:17 PM 40.8167 -73.2333 270° West 131 151 3,100 -105 Level New York TRACON
Thu 03:07:11 PM 40.8333 -73.2667 303° West 135 155 2,900 -421 Descending New York TRACON
Thu 03:08:11 PM 40.8500 -73.3167 294° West 139 160 2,300 -400 Descending New York TRACON
Thu 03:09:11 PM 40.8667 -73.3500 303° West 122 140 2,100 -100 Descending New York TRACON
Thu 03:10:11 PM 40.8500 -73.4000 246° West 112 129 2,100 -100 Level New York TRACON
Thu 03:11:11 PM 40.8167 -73.4167 201° Southwest 114 131 1,900 -300 Descending New York TRACON
Thu 03:12:11 PM 40.7833 -73.4167 180° South 110 127 1,500 -400 Descending New York TRACON
Thu 03:13:11 PM 40.7667 -73.4167 180° South 92 106 1,100 -500 Descending New York TRACON
Thu 03:14:11 PM 40.7333 -73.4167 180° South 103 119 500 -600 Descending New York TRACON
Thu 03:16:00 PM 40.7288 -73.4134 229° Southwest  Level Estimated
Thu 03:23:00 PM 40.7288 -73.4134 229° Southwest  Level Estimated

Login

Don't have an account? Register now (free) for customized features, flight alerts, and more!